Time;durP1;ratioP1;P1;durP2;ratioP2;P2;SDS_P1;SDS_P2;PMS_P1;PMS_P2;Temp;Humidity;BMP_temperature;BMP_pressure;BME280_temperature;BME280_humidity;BME280_pressure;Samples;Min_cycle;Max_cycle;Signal;HPM_P1;HPM_P2
2021/11/04 00:02:20;;;;;;;4.97;1.48;;;;;;;14.36;80.73;98830.69;5012233;28;20679;-76
2021/11/04 00:05:06;;;;;;;4.03;1.40;;;;;;;14.36;81.02;98786.94;5014134;28;20053;-76
2021/11/04 00:07:56;;;;;;;6.45;2.25;;;;;;;14.38;80.92;98797.47;5008068;28;20065;-77
2021/11/04 00:10:41;;;;;;;4.63;1.95;;;;;;;14.38;81.23;98805.69;4997086;28;20053;-76
2021/11/04 00:13:25;;;;;;;;;;;;;;;14.41;81.18;98807.66;4996702;28;20053;-76
2021/11/04 00:16:11;;;;;;;4.10;2.00;;;;;;;14.40;81.32;98812.34;5002105;28;20286;-76
2021/11/04 00:18:55;;;;;;;4.82;1.83;;;;;;;14.40;81.37;98812.34;4992493;28;20057;-76
2021/11/04 00:21:40;;;;;;;3.15;1.25;;;;;;;14.39;80.81;98818.97;4996700;28;20049;-76
2021/11/04 00:24:26;;;;;;;;;;;;;;;14.36;79.92;98813.47;4998847;28;20052;-76
2021/11/04 00:27:10;;;;;;;4.47;1.55;;;;;;;14.36;80.89;98797.88;5009182;28;19925;-76
2021/11/04 00:29:55;;;;;;;;;;;;;;;14.40;80.93;98792.41;4996340;28;20053;-76
2021/11/04 00:32:54;;;;;;;2.53;1.48;;;;;;;14.40;80.86;98790.47;4994953;28;19913;-76
2021/11/04 00:35:39;;;;;;;3.08;1.40;;;;;;;14.42;80.81;98804.53;5002549;28;20113;-76
2021/11/04 00:38:23;;;;;;;3.95;1.45;;;;;;;14.41;80.96;98813.91;5008801;28;20057;-76
2021/11/04 00:41:08;;;;;;;3.20;1.33;;;;;;;14.43;81.00;98824.44;5018189;28;20519;-77
2021/11/04 00:43:52;;;;;;;3.53;1.38;;;;;;;14.44;80.76;98828.75;5012157;28;20053;-76
2021/11/04 00:46:39;;;;;;;;;;;;;;;14.40;79.67;98836.97;4999098;28;20050;-76
2021/11/04 00:49:23;;;;;;;1.70;0.75;;;;;;;14.35;79.11;98850.19;5008317;28;19913;-76
2021/11/04 00:52:08;;;;;;;;;;;;;;;14.32;78.50;98840.81;4994159;28;20404;-76
2021/11/04 00:54:53;;;;;;;1.80;0.75;;;;;;;14.32;78.82;98854.50;4992037;28;19913;-76
2021/11/04 00:57:38;;;;;;;;;;;;;;;14.33;78.29;98863.44;5001343;28;20049;-77
2021/11/04 01:00:23;;;;;;;1.40;0.70;;;;;;;14.33;78.76;98847.03;4992997;28;19917;-77
2021/11/04 01:03:07;;;;;;;;;;;;;;;14.36;79.92;98838.09;4992600;28;20049;-76
2021/11/04 01:05:52;;;;;;;2.10;1.15;;;;;;;14.34;80.39;98827.53;4994209;28;19917;-76
2021/11/04 01:08:37;;;;;;;2.40;0.95;;;;;;;14.33;80.36;98817.75;4992169;28;20057;-76
2021/11/04 01:11:23;;;;;;;;;;;;;;;14.37;80.26;98821.34;4999263;28;20065;-76
2021/11/04 01:14:07;;;;;;;;;;;;;;;14.36;80.31;98797.88;4999254;28;19913;-76
2021/11/04 01:16:52;;;;;;;3.25;1.42;;;;;;;14.37;80.42;98772.13;5003757;28;19913;-76
2021/11/04 01:19:37;;;;;;;1.75;0.68;;;;;;;14.38;80.48;98767.41;5014136;28;20053;-76
2021/11/04 01:22:22;;;;;;;;;;;;;;;14.37;80.08;98769.38;4999357;28;20049;-76
2021/11/04 01:25:07;;;;;;;1.50;0.63;;;;;;;14.36;80.33;98756.88;4996783;28;19914;-76
2021/11/04 01:27:52;;;;;;;2.35;0.80;;;;;;;14.32;79.17;98777.94;5007135;28;20053;-76
2021/11/04 01:30:38;;;;;;;2.78;1.00;;;;;;;14.31;79.72;98779.09;5004288;28;20424;-77
2021/11/04 01:33:23;;;;;;;3.92;0.70;;;;;;;14.28;77.55;98774.38;4997382;28;20069;-76
2021/11/04 01:36:08;;;;;;;;;;;;;;;14.30;79.10;98787.66;4995473;28;20053;-77
2021/11/04 01:38:52;;;;;;;2.05;0.60;;;;;;;14.29;79.60;98791.56;5017634;28;20387;-76
2021/11/04 01:41:37;;;;;;;1.30;0.52;;;;;;;14.27;79.60;98824.00;4997145;28;20057;-76
2021/11/04 01:44:22;;;;;;;2.03;0.70;;;;;;;14.20;79.12;98822.03;4995140;28;20059;-76
2021/11/04 01:47:08;;;;;;;;;;;;;;;14.19;78.28;98842.31;5013115;28;20126;-76
2021/11/04 01:49:53;;;;;;;1.90;0.90;;;;;;;14.19;78.32;98831.38;5016689;28;20537;-76
2021/11/04 01:52:37;;;;;;;;;;;;;;;14.09;76.44;98859.47;5015269;28;20049;-76
2021/11/04 01:55:25;;;;;;;1.27;0.55;;;;;;;14.11;77.22;98873.53;5018619;28;19913;-77
2021/11/04 01:58:10;;;;;;;5.90;0.57;;;;;;;14.06;76.93;98890.31;5016105;28;20514;-76
2021/11/04 02:00:55;;;;;;;2.20;0.70;;;;;;;14.06;77.16;98899.28;5013849;28;20053;-76
2021/11/04 02:04:02;;;;;;;1.13;0.30;;;;;;;14.07;76.31;98909.03;5018968;28;20518;-76
2021/11/04 02:06:51;;;;;;;0.90;0.60;;;;;;;14.06;76.64;98909.44;4995067;28;20057;-76
2021/11/04 02:09:47;;;;;;;0.47;0.30;;;;;;;14.04;76.29;98917.22;5016070;28;20071;-76
2021/11/04 02:12:50;;;;;;;1.02;0.52;;;;;;;13.92;75.59;98925.72;5017157;28;20044;-76
2021/11/04 02:15:38;;;;;;;1.75;0.70;;;;;;;13.96;76.04;98921.09;5014738;28;20044;-76
2021/11/04 02:18:26;;;;;;;0.90;0.47;;;;;;;13.96;76.33;98926.56;5017151;28;20053;-76
2021/11/04 02:21:39;;;;;;;0.93;0.50;;;;;;;13.95;76.04;98936.69;5010825;28;20049;-76
2021/11/04 02:24:39;;;;;;;1.60;0.60;;;;;;;13.93;76.18;98919.88;5018653;28;20519;-76
2021/11/04 02:27:25;;;;;;;0.70;0.50;;;;;;;13.95;76.36;98928.50;5016045;28;20400;-76
2021/11/04 02:30:10;;;;;;;0.75;0.40;;;;;;;13.96;76.57;98924.59;5012796;28;20510;-76
2021/11/04 02:32:56;;;;;;;1.17;0.50;;;;;;;13.96;77.10;98921.88;5017980;28;20049;-77
2021/11/04 02:35:48;;;;;;;3.35;0.55;;;;;;;13.93;76.77;98919.88;5015638;28;20053;-77
2021/11/04 02:38:34;;;;;;;1.30;0.40;;;;;;;13.92;77.34;98901.91;5008064;28;20515;-77
2021/11/04 02:41:20;;;;;;;1.02;0.40;;;;;;;13.95;76.94;98914.84;4997991;28;20053;-77
2021/11/04 02:44:08;;;;;;;0.47;0.40;;;;;;;13.93;76.12;98916.38;4996124;28;20069;-76
2021/11/04 02:46:57;;;;;;;1.00;0.52;;;;;;;13.91;75.38;98922.22;4998636;28;20527;-76
2021/11/04 02:49:45;;;;;;;1.90;0.60;;;;;;;13.85;75.54;98920.22;5010236;28;20053;-76
2021/11/04 02:52:30;;;;;;;1.00;0.50;;;;;;;13.85;76.44;98936.63;4995934;28;20061;-76
2021/11/04 02:55:14;;;;;;;;;;;;;;;13.85;76.76;98944.81;4998771;28;20049;-77
2021/11/04 02:58:04;;;;;;;1.50;0.70;;;;;;;13.79;76.53;98970.91;5006917;28;19913;-76
2021/11/04 03:00:53;;;;;;;0.63;0.52;;;;;;;13.81;76.84;98977.59;5007380;28;20054;-76
2021/11/04 03:03:38;;;;;;;2.65;0.63;;;;;;;13.80;76.59;98989.69;4993619;28;20053;-76
2021/11/04 03:06:23;;;;;;;0.90;0.50;;;;;;;13.74;77.25;98998.59;4995501;28;20057;-77
2021/11/04 03:09:08;;;;;;;1.98;0.40;;;;;;;13.62;77.02;99016.81;5012561;28;20049;-76
2021/11/04 03:11:53;;;;;;;;;;;;;;;13.65;77.81;99032.47;4997118;28;20061;-77
2021/11/04 03:14:38;;;;;;;0.35;0.30;;;;;;;13.61;78.02;99042.56;4997657;28;19914;-76
2021/11/04 03:17:23;;;;;;;1.10;0.50;;;;;;;13.65;78.45;99059.00;4995280;28;20049;-76
2021/11/04 03:20:10;;;;;;;3.05;0.50;;;;;;;13.56;77.87;99040.19;5010631;28;20045;-77
2021/11/04 03:22:57;;;;;;;1.10;0.60;;;;;;;13.52;77.58;99006.59;4997462;28;20054;-76
2021/11/04 03:25:45;;;;;;;2.17;0.60;;;;;;;13.65;77.80;98969.66;4995169;28;20057;-76
2021/11/04 03:28:32;;;;;;;0.52;0.35;;;;;;;13.68;77.35;98992.69;4999392;28;20045;-76
2021/11/04 03:31:17;;;;;;;0.82;0.35;;;;;;;13.65;76.80;99029.75;4997240;28;20456;-76
2021/11/04 03:34:04;;;;;;;1.42;0.20;;;;;;;13.53;76.85;99030.03;4998755;28;20049;-76
2021/11/04 03:36:50;;;;;;;1.55;0.43;;;;;;;13.60;77.55;99034.78;4992846;28;20439;-77
2021/11/04 03:39:36;;;;;;;0.65;0.40;;;;;;;13.51;76.93;99042.50;5009242;28;20049;-76
2021/11/04 03:42:22;;;;;;;0.88;0.50;;;;;;;13.49;77.13;99050.25;4995374;28;20053;-76
2021/11/04 03:45:12;;;;;;;1.90;0.82;;;;;;;13.56;76.63;99061.28;4995713;28;20085;-76
2021/11/04 03:47:58;;;;;;;0.60;0.50;;;;;;;13.48;76.42;99070.53;5016560;28;20061;-76
2021/11/04 03:50:44;;;;;;;1.73;1.13;;;;;;;13.48;76.97;99071.31;5013983;28;20534;-76
2021/11/04 03:53:29;;;;;;;0.57;0.55;;;;;;;13.48;77.22;99074.06;4993176;28;20053;-76
2021/11/04 03:56:14;;;;;;;1.58;1.17;;;;;;;13.45;77.05;99083.00;4994719;28;20416;-77
2021/11/04 03:58:59;;;;;;;1.65;1.23;;;;;;;13.49;77.33;99083.81;4996573;28;20053;-76
2021/11/04 04:01:44;;;;;;;;;;;;;;;13.54;77.10;99096.34;5012903;28;20053;-77
2021/11/04 04:04:28;;;;;;;1.40;1.10;;;;;;;13.58;77.39;99103.41;5017110;28;19914;-76
2021/11/04 04:07:13;;;;;;;2.95;1.73;;;;;;;13.55;76.75;99104.19;5014343;28;20052;-76
2021/11/04 04:09:59;;;;;;;1.92;1.50;;;;;;;13.56;77.42;99115.88;5012084;28;20049;-77
2021/11/04 04:12:44;;;;;;;2.15;1.33;;;;;;;13.58;77.42;99114.34;5016678;28;20049;-76
2021/11/04 04:15:29;;;;;;;;;;;;;;;13.57;76.86;99131.09;5015046;28;20057;-77
2021/11/04 04:18:14;;;;;;;1.42;1.10;;;;;;;13.55;77.50;99138.91;5013118;28;19913;-76
2021/11/04 04:20:59;;;;;;;1.20;0.77;;;;;;;13.61;77.37;99140.91;5016065;28;20056;-76
2021/11/04 04:23:44;;;;;;;3.05;1.48;;;;;;;13.64;77.24;99144.84;5006022;28;20424;-76
2021/11/04 04:26:29;;;;;;;5.07;0.90;;;;;;;13.61;77.84;99146.34;5007080;28;20060;-76
2021/11/04 04:29:15;;;;;;;2.53;0.82;;;;;;;13.64;77.57;99151.09;5014166;28;20049;-76
2021/11/04 04:32:00;;;;;;;0.70;0.60;;;;;;;13.61;77.89;99154.56;5010256;28;20056;-77
2021/11/04 04:34:45;;;;;;;;;;;;;;;13.64;78.68;99161.22;5016396;28;20435;-76
2021/11/04 04:37:30;;;;;;;1.83;0.68;;;;;;;13.61;78.83;99159.25;5014510;28;19913;-76
2021/11/04 04:40:15;;;;;;;0.68;0.60;;;;;;;13.63;79.11;99156.91;5011258;28;20048;-76
2021/11/04 04:42:59;;;;;;;1.73;0.70;;;;;;;13.62;79.15;99152.59;5016610;28;20052;-76
2021/11/04 04:45:44;;;;;;;1.35;0.90;;;;;;;13.60;79.49;99163.94;5037956;23;20456;-77
2021/11/04 04:48:29;;;;;;;1.50;1.10;;;;;;;13.58;78.77;99171.69;5017611;28;20061;-78
2021/11/04 04:51:15;;;;;;;1.65;1.25;;;;;;;13.58;78.76;99179.88;5012518;28;20049;-78
2021/11/04 04:53:59;;;;;;;2.58;1.00;;;;;;;13.54;78.84;99179.06;5017999;28;20048;-77
2021/11/04 04:56:44;;;;;;;1.00;0.80;;;;;;;13.55;79.00;99183.38;5025046;28;20053;-78
2021/11/04 04:59:30;;;;;;;1.10;0.80;;;;;;;13.51;78.83;99174.34;5032482;28;20049;-78
2021/11/04 05:02:15;;;;;;;2.63;2.20;;;;;;;13.53;78.66;99182.94;5032647;28;20050;-78
2021/11/04 05:04:59;;;;;;;3.40;2.13;;;;;;;13.49;78.08;99195.00;5035902;28;20419;-78
2021/11/04 05:07:44;;;;;;;1.63;1.15;;;;;;;13.51;78.22;99200.88;5023753;28;20053;-79
2021/11/04 05:10:29;;;;;;;2.10;1.50;;;;;;;13.50;78.36;99199.31;5016974;28;20492;-78
2021/11/04 05:13:13;;;;;;;2.92;1.80;;;;;;;13.48;78.19;99207.06;5028635;28;20041;-77
2021/11/04 05:15:59;;;;;;;;;;;;;;;13.51;78.57;99203.63;5019720;28;20057;-78
2021/11/04 05:18:44;;;;;;;3.90;1.80;;;;;;;13.45;78.18;99208.63;5024035;28;19913;-79
2021/11/04 05:21:28;;;;;;;2.38;1.83;;;;;;;13.49;78.56;99214.91;5027607;28;20132;-78
2021/11/04 05:24:13;;;;;;;3.00;1.70;;;;;;;13.50;79.53;99221.94;5019015;28;20053;-78
2021/11/04 05:26:58;;;;;;;0.63;0.63;;;;;;;13.49;78.82;99235.97;5023941;28;20057;-78
2021/11/04 05:29:43;;;;;;;;;;;;;;;13.51;78.88;99233.66;5022853;28;20534;-78
2021/11/04 05:32:28;;;;;;;2.17;1.52;;;;;;;13.49;78.37;99238.69;5022418;28;19913;-80
2021/11/04 05:35:13;;;;;;;;;;;;;;;13.49;78.57;99241.41;5015501;28;20057;-79
2021/11/04 05:37:57;;;;;;;3.95;1.67;;;;;;;13.44;78.30;99239.81;5027559;28;19916;-81
2021/11/04 05:40:42;;;;;;;;;;;;;;;13.47;77.35;99251.91;5017083;28;20044;-81
2021/11/04 05:43:27;;;;;;;6.40;3.40;;;;;;;13.43;77.82;99253.81;5020930;28;20311;-80
2021/11/04 05:46:12;;;;;;;3.38;2.60;;;;;;;13.45;77.66;99256.97;5016724;28;20412;-81
2021/11/04 05:48:57;;;;;;;5.95;2.30;;;;;;;13.43;78.24;99268.25;5011087;28;20530;-80
2021/11/04 05:51:42;;;;;;;;;;;;;;;13.44;78.85;99269.84;5016194;28;20053;-81
2021/11/04 05:54:27;;;;;;;2.63;1.10;;;;;;;13.44;79.24;99282.69;5017387;28;19917;-82
2021/11/04 05:57:12;;;;;;;3.13;1.58;;;;;;;13.42;79.48;99277.59;5019715;28;20275;-81
2021/11/04 05:59:56;;;;;;;;;;;;;;;13.45;79.65;99289.75;5017904;28;20515;-79
2021/11/04 06:02:41;;;;;;;8.40;1.27;;;;;;;13.44;80.01;99302.59;5029834;28;19912;-80
2021/11/04 06:05:27;;;;;;;2.67;1.67;;;;;;;13.44;80.03;99302.59;5016485;28;20057;-81
2021/11/04 06:08:11;;;;;;;3.08;1.58;;;;;;;13.43;80.21;99313.88;5023618;28;20048;-79
2021/11/04 06:10:57;;;;;;;2.80;1.17;;;;;;;13.40;80.28;99329.09;5021385;28;20048;-79
2021/11/04 06:13:42;;;;;;;6.70;3.63;;;;;;;13.27;77.74;99344.06;5025641;28;20068;-79
2021/11/04 06:16:26;;;;;;;4.05;2.55;;;;;;;13.28;78.12;99356.56;5018616;28;20053;-79
2021/11/04 06:19:11;;;;;;;9.27;3.15;;;;;;;13.26;77.60;99361.59;5016578;28;20053;-78
2021/11/04 06:21:55;;;;;;;4.90;3.42;;;;;;;13.20;77.70;99357.63;5020013;28;20065;-78
2021/11/04 06:24:40;;;;;;;7.70;4.45;;;;;;;13.15;75.57;99371.59;5038137;28;20048;-79
2021/11/04 06:27:25;;;;;;;5.78;3.38;;;;;;;13.06;74.78;99355.41;5028930;28;20056;-79
2021/11/04 06:30:12;;;;;;;4.63;3.33;;;;;;;13.16;75.80;99354.81;5018094;28;20048;-78
2021/11/04 06:32:57;;;;;;;3.92;2.92;;;;;;;13.23;76.15;99370.53;5018680;28;20056;-76
2021/11/04 06:35:43;;;;;;;3.08;2.47;;;;;;;13.21;74.81;99381.81;5024382;28;20045;-77
2021/11/04 06:38:31;;;;;;;5.47;2.50;;;;;;;13.23;76.63;99392.38;5019457;28;20411;-79
2021/11/04 06:41:16;;;;;;;5.30;2.83;;;;;;;13.20;76.95;99393.13;5020640;28;20418;-77
2021/11/04 06:44:00;;;;;;;3.78;2.30;;;;;;;13.19;76.69;99416.09;5004099;28;20058;-78
2021/11/04 06:46:48;;;;;;;;;;;;;;;13.19;76.38;99440.66;5023516;28;20125;-80
2021/11/04 06:49:34;;;;;;;3.72;1.85;;;;;;;13.19;76.77;99443.41;5017311;28;19917;-78
2021/11/04 06:52:25;;;;;;;5.10;2.00;;;;;;;13.20;76.84;99442.25;5015341;28;20444;-78
2021/11/04 06:55:11;;;;;;;4.85;2.35;;;;;;;13.17;76.37;99451.94;5018917;28;20052;-77
2021/11/04 06:58:01;;;;;;;3.35;2.05;;;;;;;13.17;76.61;99460.13;5019417;28;20044;-76
2021/11/04 07:00:47;;;;;;;4.43;2.45;;;;;;;13.17;76.78;99457.41;5026596;28;20420;-77
2021/11/04 07:03:41;;;;;;;2.05;1.38;;;;;;;13.18;77.26;99461.72;5019102;28;20045;-76
2021/11/04 07:06:29;;;;;;;2.67;1.95;;;;;;;13.07;75.77;99481.75;5015989;28;20056;-77
2021/11/04 07:09:14;;;;;;;3.38;1.35;;;;;;;13.09;76.34;99479.44;4994787;28;20053;-78
2021/11/04 07:11:59;;;;;;;;;;;;;;;13.08;75.95;99495.03;5007269;28;20049;-77
2021/11/04 07:14:44;;;;;;;4.15;1.33;;;;;;;13.03;76.20;99500.00;5036902;28;19913;-77
2021/11/04 07:17:29;;;;;;;;;;;;;;;13.10;77.18;99511.06;5033777;28;20040;-77
2021/11/04 07:20:17;;;;;;;4.97;2.13;;;;;;;13.07;76.73;99520.75;5019887;28;20379;-77
2021/11/04 07:23:02;;;;;;;3.97;2.30;;;;;;;13.04;77.29;99512.50;5016247;28;20052;-78
2021/11/04 07:25:52;;;;;;;5.25;2.08;;;;;;;12.91;75.74;99524.69;5014418;28;20064;-78
2021/11/04 07:28:40;;;;;;;4.28;2.20;;;;;;;12.93;76.12;99538.78;5017825;28;20057;-77
2021/11/04 07:31:27;;;;;;;3.80;1.85;;;;;;;12.86;76.10;99548.38;5015324;28;20119;-78
2021/11/04 07:34:16;;;;;;;6.38;2.67;;;;;;;12.93;76.64;99555.16;5013935;28;20056;-80
2021/11/04 07:37:01;;;;;;;6.13;2.28;;;;;;;12.97;77.23;99575.09;5014133;28;20065;-78
2021/11/04 07:39:46;;;;;;;3.28;1.83;;;;;;;12.91;76.23;99582.00;5015500;28;20056;-79
2021/11/04 07:42:31;;;;;;;;;;;;;;;12.95;76.80;99583.66;5014156;28;20526;-79
2021/11/04 07:45:16;;;;;;;8.77;2.47;;;;;;;13.01;78.04;99573.22;5017162;28;19917;-79
2021/11/04 07:48:01;;;;;;;5.35;2.28;;;;;;;13.06;77.85;99573.75;5015361;28;20049;-79
2021/11/04 07:50:48;;;;;;;3.38;1.50;;;;;;;13.08;78.86;99574.19;5013921;28;20248;-78
2021/11/04 07:53:32;;;;;;;8.48;2.30;;;;;;;13.12;78.60;99571.53;5017533;28;20049;-77
2021/11/04 07:56:17;;;;;;;;;;;;;;;13.15;79.38;99577.09;5016132;28;20049;-77
2021/11/04 07:59:02;;;;;;;5.63;1.52;;;;;;;13.14;80.33;99588.34;5014059;28;19913;-77
2021/11/04 08:01:47;;;;;;;6.72;2.08;;;;;;;13.09;79.33;99591.34;5017525;28;20052;-77
2021/11/04 08:04:32;;;;;;;4.15;1.38;;;;;;;13.11;79.36;99600.78;5015888;28;20069;-80
2021/11/04 08:07:16;;;;;;;4.40;1.70;;;;;;;13.03;78.57;99596.31;5012987;28;20060;-77
2021/11/04 08:10:03;;;;;;;3.35;2.00;;;;;;;13.06;78.21;99600.25;5012823;28;20400;-77
2021/11/04 08:12:48;;;;;;;1.90;1.15;;;;;;;13.06;78.18;99581.94;5015911;28;20065;-77
2021/11/04 08:15:34;;;;;;;;;;;;;;;13.09;78.36;99583.94;5014411;28;20056;-78
2021/11/04 08:18:19;;;;;;;2.72;1.48;;;;;;;13.15;79.53;99595.41;5022367;28;19914;-79
2021/11/04 08:21:04;;;;;;;3.63;1.60;;;;;;;13.10;78.82;99601.13;5019876;28;20531;-78
2021/11/04 08:23:49;;;;;;;4.47;1.98;;;;;;;13.13;79.06;99614.06;5017244;28;20057;-79
2021/11/04 08:26:34;;;;;;;;;;;;;;;13.15;79.17;99619.97;5017011;28;20424;-78
2021/11/04 08:29:18;;;;;;;6.43;1.35;;;;;;;13.08;78.33;99626.03;5018224;28;19918;-77
2021/11/04 08:32:05;;;;;;;2.08;0.73;;;;;;;13.01;76.96;99641.47;5016173;28;20064;-79
2021/11/04 08:34:50;;;;;;;2.47;1.25;;;;;;;13.06;77.63;99646.63;5014546;28;20464;-79
2021/11/04 08:37:34;;;;;;;;;;;;;;;13.02;76.79;99651.22;5014489;28;20069;-79
2021/11/04 08:40:20;;;;;;;4.97;1.50;;;;;;;13.02;76.92;99665.66;5015906;28;19914;-80
2021/11/04 08:43:05;;;;;;;3.28;1.05;;;;;;;13.02;77.66;99676.59;5014520;28;20412;-77
2021/11/04 08:45:52;;;;;;;;;;;;;;;13.07;78.13;99680.97;5017667;28;20416;-78
2021/11/04 08:48:38;;;;;;;1.58;0.80;;;;;;;13.08;77.75;99685.28;5016168;28;19917;-79
2021/11/04 08:51:22;;;;;;;3.63;0.90;;;;;;;13.00;77.01;99689.03;5014111;28;20048;-79
2021/11/04 08:54:07;;;;;;;1.90;0.82;;;;;;;13.05;76.64;99702.38;5017717;28;20412;-78
2021/11/04 08:56:53;;;;;;;2.00;1.10;;;;;;;13.07;77.01;99706.31;5014513;28;20069;-79
2021/11/04 08:59:38;;;;;;;;;;;;;;;13.09;77.39;99703.25;5014228;28;20044;-79
2021/11/04 09:02:25;;;;;;;;;;;;;;;13.10;78.24;99702.91;5017837;28;19913;-78
2021/11/04 09:05:10;;;;;;;1.92;0.95;;;;;;;13.10;77.10;99711.09;5015317;28;19913;-79
2021/11/04 09:07:55;;;;;;;1.40;0.98;;;;;;;13.08;76.82;99716.09;5013390;28;20052;-77
2021/11/04 09:10:40;;;;;;;2.83;0.90;;;;;;;13.10;76.29;99723.94;5016978;28;20415;-78
2021/11/04 09:13:24;;;;;;;3.08;1.00;;;;;;;13.06;75.96;99725.78;5015295;28;20064;-79
2021/11/04 09:16:09;;;;;;;0.80;0.73;;;;;;;13.03;74.97;99737.41;5013490;28;20044;-79
2021/11/04 09:18:54;;;;;;;;;;;;;;;13.09;75.39;99742.25;5017831;28;20053;-78
2021/11/04 09:21:39;;;;;;;2.50;1.30;;;;;;;13.06;75.73;99736.69;5015776;28;19913;-79
2021/11/04 09:24:25;;;;;;;2.70;1.25;;;;;;;13.13;76.61;99747.81;5013195;28;20049;-76
2021/11/04 09:27:10;;;;;;;2.40;1.10;;;;;;;13.12;76.50;99751.69;5012805;28;20519;-77
2021/11/04 09:29:56;;;;;;;3.45;1.42;;;;;;;13.19;77.32;99757.31;5001908;28;20045;-80
2021/11/04 09:32:43;;;;;;;4.82;1.33;;;;;;;13.19;77.10;99760.06;5014867;28;20052;-77
2021/11/04 09:35:28;;;;;;;3.40;1.10;;;;;;;13.24;77.83;99770.69;5020500;28;20408;-78
2021/11/04 09:38:13;;;;;;;4.50;1.08;;;;;;;13.19;76.08;99774.50;5018714;28;20109;-78
2021/11/04 09:40:58;;;;;;;1.80;1.00;;;;;;;13.23;76.41;99775.38;5016794;28;20131;-77
2021/11/04 09:43:43;;;;;;;;;;;;;;;13.27;76.40;99786.34;5015387;28;20519;-78
2021/11/04 09:46:28;;;;;;;1.98;0.75;;;;;;;13.25;75.99;99794.91;5017812;28;19913;-77
2021/11/04 09:49:13;;;;;;;1.85;0.70;;;;;;;13.25;75.19;99796.84;5017287;28;20045;-78
2021/11/04 09:51:58;;;;;;;2.33;1.02;;;;;;;13.27;75.59;99798.06;5015085;28;20112;-77
2021/11/04 09:54:43;;;;;;;1.80;0.70;;;;;;;13.30;76.38;99804.78;5019192;28;20057;-77
2021/11/04 09:57:28;;;;;;;;;;;;;;;13.31;75.39;99806.34;5015849;28;20053;-77
2021/11/04 10:00:13;;;;;;;0.93;0.57;;;;;;;13.31;75.57;99817.25;5015330;28;19913;-77
2021/11/04 10:03:10;;;;;;;2.45;0.85;;;;;;;13.34;75.70;99832.94;5019306;28;20415;-77
2021/11/04 10:05:55;;;;;;;1.05;0.65;;;;;;;13.34;75.22;99840.34;5016826;28;20069;-79
2021/11/04 10:08:40;;;;;;;2.97;1.15;;;;;;;13.34;74.15;99841.13;5015381;28;20072;-78
2021/11/04 10:11:36;;;;;;;3.65;1.00;;;;;;;13.34;74.12;99843.06;5018985;28;20053;-78
2021/11/04 10:14:21;;;;;;;3.55;0.95;;;;;;;13.40;75.13;99849.84;5021368;28;20057;-78
2021/11/04 10:17:37;;;;;;;5.30;0.90;;;;;;;13.43;73.84;99849.13;5015782;28;20049;-78
2021/11/04 10:20:27;;;;;;;3.88;1.15;;;;;;;13.43;74.72;99843.66;5017324;28;20045;-78
2021/11/04 10:23:14;;;;;;;2.53;1.35;;;;;;;13.47;74.61;99852.72;5013297;28;20041;-77
2021/11/04 10:26:08;;;;;;;3.70;1.10;;;;;;;13.50;74.39;99854.78;5015761;28;20053;-77
2021/11/04 10:29:01;;;;;;;5.28;1.13;;;;;;;13.55;74.93;99847.09;5017429;28;20041;-77
2021/11/04 10:31:49;;;;;;;1.75;0.80;;;;;;;13.52;73.64;99841.53;5021164;28;20052;-76
2021/11/04 10:34:37;;;;;;;1.77;1.02;;;;;;;13.59;74.50;99844.44;5014458;28;20045;-76
2021/11/04 10:37:22;;;;;;;4.35;1.27;;;;;;;13.52;73.00;99847.00;5014879;28;20059;-76
2021/11/04 10:40:14;;;;;;;;;;;;;;;13.57;74.14;99855.72;5017391;28;20049;-77
2021/11/04 10:42:59;;;;;;;2.88;1.48;;;;;;;13.60;74.84;99862.41;5013523;28;19914;-76
2021/11/04 10:49:03;;;;;;;1.85;0.70;;;;;;;13.62;75.09;99873.75;4971824;28;20050;-64
2021/11/04 10:52:05;;;;;;;2.50;1.40;;;;;;;13.67;75.78;99868.03;4969201;28;20062;-63
2021/11/04 10:54:54;;;;;;;3.35;1.20;;;;;;;13.66;75.79;99858.25;4974495;28;20042;-64
2021/11/04 10:57:41;;;;;;;3.55;1.15;;;;;;;13.68;76.06;99861.41;4964891;28;20049;-64
2021/11/04 11:00:26;;;;;;;2.35;0.98;;;;;;;13.69;76.21;99855.59;4975394;28;20408;-64
2021/11/04 11:03:11;;;;;;;1.75;0.55;;;;;;;13.74;76.44;99867.41;4977833;28;20049;-64
2021/11/04 11:05:58;;;;;;;;;;;;;;;13.72;75.17;99867.75;4974559;28;20065;-64
2021/11/04 11:08:44;;;;;;;5.80;1.80;;;;;;;13.70;74.68;99870.84;4975137;28;20371;-64
2021/11/04 11:11:29;;;;;;;3.45;1.30;;;;;;;13.74;75.09;99875.59;4980766;28;20053;-64
2021/11/04 11:14:15;;;;;;;;;;;;;;;13.77;75.98;99886.59;4975032;28;20522;-64
2021/11/04 11:17:00;;;;;;;;;;;;;;;13.73;73.99;99880.25;4975105;28;19914;-64
2021/11/04 11:19:45;;;;;;;4.93;1.57;;;;;;;13.73;75.04;99884.94;4980622;28;19913;-63
2021/11/04 11:22:30;;;;;;;;;;;;;;;13.77;74.24;99885.78;4972790;28;20408;-64
2021/11/04 11:25:15;;;;;;;3.08;1.52;;;;;;;13.79;73.96;99887.03;4973907;28;20561;-64
2021/11/04 11:28:00;;;;;;;;;;;;;;;13.83;74.75;99889.84;4972453;28;20065;-64
2021/11/04 11:31:10;;;;;;;3.30;1.30;;;;;;;13.80;72.53;99890.56;4956683;28;20299;-64
2021/11/04 11:34:11;;;;;;;5.03;0.93;;;;;;;13.81;72.45;99890.22;4959649;28;20054;-64
2021/11/04 11:37:10;;;;;;;1.98;1.08;;;;;;;13.88;73.28;99895.03;4959090;28;20531;-64
2021/11/04 11:40:13;;;;;;;4.40;1.15;;;;;;;13.90;73.54;99900.94;4973633;28;20046;-64
2021/11/04 11:43:08;;;;;;;5.68;1.00;;;;;;;13.92;73.22;99901.34;4976653;28;20049;-64
2021/11/04 11:46:02;;;;;;;3.13;0.73;;;;;;;13.94;73.32;99907.28;4977126;28;20050;-62
2021/11/04 11:49:11;;;;;;;1.60;1.20;;;;;;;13.95;73.11;99900.66;4980101;28;20839;-63
2021/11/04 11:51:57;;;;;;;1.98;0.88;;;;;;;13.99;72.60;99909.72;4979944;28;20523;-63
2021/11/04 11:54:53;;;;;;;2.78;0.95;;;;;;;14.04;72.38;99914.91;4978546;28;20392;-63
2021/11/04 11:57:39;;;;;;;10.00;1.35;;;;;;;14.03;72.20;99927.00;4980364;28;20050;-62
2021/11/04 12:00:49;;;;;;;1.55;0.80;;;;;;;14.07;72.13;99927.84;4974539;28;20515;-62
2021/11/04 12:03:40;;;;;;;1.85;0.60;;;;;;;14.07;71.75;99938.78;4980049;28;20054;-62
2021/11/04 12:06:45;;;;;;;2.38;1.00;;;;;;;14.10;72.01;99932.63;4974577;28;20069;-63
2021/11/04 12:09:42;;;;;;;0.73;0.60;;;;;;;14.11;72.18;99934.22;4979754;28;20049;-62
2021/11/04 12:12:46;;;;;;;2.03;0.90;;;;;;;14.11;72.08;99935.00;4979601;28;20057;-64
2021/11/04 12:15:51;;;;;;;2.83;0.93;;;;;;;14.49;65.48;99937.00;4971622;28;20045;-64
2021/11/04 12:18:36;;;;;;;1.65;0.90;;;;;;;14.83;63.96;99953.69;4974754;28;20527;-62
2021/11/04 12:21:34;;;;;;;4.32;0.82;;;;;;;14.92;61.16;99944.09;4979865;28;20416;-63
2021/11/04 12:24:19;;;;;;;3.15;0.70;;;;;;;14.94;61.60;99943.72;4977159;28;20419;-63
2021/11/04 12:27:11;;;;;;;2.67;1.02;;;;;;;15.05;60.54;99943.91;4973404;28;20054;-64
2021/11/04 12:29:56;;;;;;;2.80;0.90;;;;;;;15.09;60.69;99948.28;4978929;28;20046;-64
2021/11/04 12:32:43;;;;;;;1.92;1.00;;;;;;;15.18;59.77;99946.13;4976792;28;20518;-64
2021/11/04 12:35:51;;;;;;;2.28;0.90;;;;;;;15.29;59.91;99932.59;4975024;28;20057;-64
2021/11/04 12:38:42;;;;;;;0.50;0.50;;;;;;;15.36;59.47;99940.94;4979730;28;20050;-65
2021/11/04 12:41:27;;;;;;;1.88;0.70;;;;;;;15.45;59.76;99941.47;4975451;28;20054;-63
2021/11/04 12:44:13;;;;;;;4.40;1.08;;;;;;;15.37;59.10;99939.78;4974048;28;20403;-65
2021/11/04 12:46:58;;;;;;;1.95;1.15;;;;;;;15.62;60.47;99929.25;4973502;28;20061;-65
2021/11/04 12:49:44;;;;;;;5.82;1.02;;;;;;;15.87;58.90;99938.66;4973858;28;20070;-65
2021/11/04 12:52:29;;;;;;;1.25;0.90;;;;;;;16.17;57.50;99935.94;4979509;28;20411;-65
2021/11/04 12:55:22;;;;;;;1.58;0.82;;;;;;;16.53;56.10;99945.41;4978053;28;20058;-65
2021/11/04 12:58:09;;;;;;;1.35;0.70;;;;;;;17.02;56.92;99948.72;4979741;28;20057;-64
2021/11/04 13:01:00;;;;;;;2.10;1.10;;;;;;;17.08;53.89;99939.00;4976954;28;20071;-65
2021/11/04 13:03:45;;;;;;;4.50;1.00;;;;;;;17.44;55.34;99944.81;4979513;28;20058;-64
2021/11/04 13:06:30;;;;;;;2.15;0.82;;;;;;;16.88;54.67;99951.34;4975480;28;20054;-64
2021/11/04 13:09:15;;;;;;;2.25;1.33;;;;;;;16.32;56.51;99950.63;4983099;28;20050;-64
2021/11/04 13:12:08;;;;;;;2.17;1.10;;;;;;;16.21;54.87;99956.75;4983029;28;20054;-64
2021/11/04 13:15:00;;;;;;;3.47;1.30;;;;;;;15.97;59.17;99953.66;4978663;28;20058;-64
2021/11/04 13:17:54;;;;;;;9.88;2.13;;;;;;;15.82;59.46;99953.47;4976493;28;20429;-64
2021/11/04 13:20:40;;;;;;;5.45;1.65;;;;;;;15.95;56.00;99951.28;4983023;28;20050;-64
2021/11/04 13:23:27;;;;;;;1.08;0.93;;;;;;;16.43;57.78;99946.88;4983067;28;20053;-64